Terminal Aerodrome Forecast
Issued by NWS

Home | Current Version | Previous Version | Text Only | Print | Product List | Glossary On
Versions: 1 2 3 4 5 6 7 8 9 10 11 12 13 14 15 16 17 18 19 20 21 22 23 24 25 26 27 28 29 30 31 32 33 34 35
000
FTUS44 KEWX 232325
TAFSSF
TAF
KSSF 232325Z 2400/2424 13012KT P6SM SCT050 SCT090
     FM240600 13005KT P6SM OVC015
     FM240900 12004KT 5SM BR OVC009
     FM241400 12007KT 5SM BR OVC012
     FM241700 13010KT P6SM BKN035=

USA.gov is the U.S. government's official web portal to all federal, state and local government web resources and services.